Time;durP1;ratioP1;P1;durP2;ratioP2;P2;SDS_P1;SDS_P2;PMS_P1;PMS_P2;Temp;Humidity;BMP_temperature;BMP_pressure;BME280_temperature;BME280_humidity;BME280_pressure;Samples;Min_cycle;Max_cycle;Signal;HPM_P1;HPM_P2
2022/05/21 00:00:20;;;;;;;;;;;;;;;;;;5056986;28;19967;-24
2022/05/21 00:02:47;;;;;;;;;;;;;;;;;;5056539;28;19961;-24
2022/05/21 00:08:05;;;;;;;;;;;;;;;;;;5056695;28;19923;-25
2022/05/21 00:10:31;;;;;;;;;;;;;;;;;;5055763;28;20414;-24
2022/05/21 00:12:59;;;;;;;;;;;;;;;;;;5055840;28;20001;-24
2022/05/21 00:15:28;;;;;;;;;;;;;;;;;;5058759;28;19931;-24
2022/05/21 00:17:57;;;;;;;;;;;;;;;;;;5043150;28;19913;-24
2022/05/21 00:23:09;;;;;;;;;;;;;;;;;;5060455;28;20014;-24
2022/05/21 00:25:36;;;;;;;;;;;;;;;;;;5060311;28;19932;-24
2022/05/21 00:28:04;;;;;;;;;;;;;;;;;;5060231;28;19915;-24
2022/05/21 00:30:32;;;;;;;;;;;;;;;;;;5042255;28;20259;-24
2022/05/21 00:32:58;;;;;;;;;;;;;;;;;;5060219;28;19982;-24
2022/05/21 00:35:25;;;;;;;;;;;;;;;;;;5059963;28;19939;-24
2022/05/21 00:37:52;;;;;;;;;;;;;;;;;;5059973;28;20320;-24
2022/05/21 00:40:19;;;;;;;;;;;;;;;;;;5060214;28;20260;-24
2022/05/21 00:42:46;;;;;;;;;;;;;;;;;;5059456;28;19955;-24
2022/05/21 00:45:13;;;;;;;;;;;;;;;;;;5042099;28;20018;-25
2022/05/21 00:47:40;;;;;;;;;;;;;;;;;;5060144;28;20269;-24
2022/05/21 00:50:09;;;;;;;;;;;;;;;;;;5059342;28;20007;-25
2022/05/21 00:52:36;;;;;;;;;;;;;;;;;;5059093;28;19913;-24
2022/05/21 00:55:02;;;;;;;;;;;;;;;;;;5041677;28;19913;-24
2022/05/21 00:57:29;;;;;;;;;;;;;;;;;;5041563;28;19908;-24
2022/05/21 00:59:55;;;;;;;;;;;;;;;;;;5059550;28;19913;-24
2022/05/21 01:02:22;;;;;;;;;;;;;;;;;;5059405;28;19908;-24
2022/05/21 01:04:50;;;;;;;;;;;;;;;;;;5041886;28;19913;-25
2022/05/21 01:07:18;;;;;;;;;;;;;;;;;;5059480;28;19913;-25
2022/05/21 01:09:45;;;;;;;;;;;;;;;;;;5059627;28;19909;-25
2022/05/21 01:12:12;;;;;;;;;;;;;;;;;;5059721;28;20005;-24
2022/05/21 01:14:38;;;;;;;;;;;;;;;;;;5042050;28;19924;-24
2022/05/21 01:17:05;;;;;;;;;;;;;;;;;;5058484;28;19974;-24
2022/05/21 01:19:33;;;;;;;;;;;;;;;;;;5059504;28;19909;-24
2022/05/21 01:22:00;;;;;;;;;;;;;;;;;;5057765;28;20251;-24
2022/05/21 01:24:27;;;;;;;;;;;;;;;;;;5058035;28;20361;-24
2022/05/21 01:26:53;;;;;;;;;;;;;;;;;;5058231;28;20006;-24
2022/05/21 01:29:21;;;;;;;;;;;;;;;;;;5058477;28;19996;-25
2022/05/21 01:31:47;;;;;;;;;;;;;;;;;;5058015;28;19924;-25
2022/05/21 01:34:14;;;;;;;;;;;;;;;;;;5058841;28;19932;-24
2022/05/21 01:36:41;;;;;;;;;;;;;;;;;;5059049;28;19912;-24
2022/05/21 01:39:07;;;;;;;;;;;;;;;;;;5057628;28;19909;-24
2022/05/21 01:41:34;;;;;;;;;;;;;;;;;;5058770;28;19913;-24
2022/05/21 01:44:52;;;;;;;;;;;;;;;;;;5058475;28;19924;-25
2022/05/21 01:46:48;;;;;;;;;;;;;;;;;;5047823;28;19935;-25
2022/05/21 01:49:14;;;;;;;;;;;;;;;;;;5057333;28;19913;-24
2022/05/21 01:51:42;;;;;;;;;;;;;;;;;;5058529;28;19913;-25
2022/05/21 01:54:09;;;;;;;;;;;;;;;;;;5057266;28;19967;-25
2022/05/21 01:56:36;;;;;;;;;;;;;;;;;;5058056;28;20273;-24
2022/05/21 01:59:03;;;;;;;;;;;;;;;;;;5058716;28;20255;-24
2022/05/21 02:04:15;;;;;;;;;;;;;;;;;;5058552;28;20251;-24
2022/05/21 02:06:42;;;;;;;;;;;;;;;;;;5057868;28;19913;-24
2022/05/21 02:09:09;;;;;;;;;;;;;;;;;;5058489;28;19909;-24
2022/05/21 02:11:36;;;;;;;;;;;;;;;;;;5058165;28;19948;-24
2022/05/21 02:14:04;;;;;;;;;;;;;;;;;;5057850;28;19963;-24
2022/05/21 02:16:33;;;;;;;;;;;;;;;;;;5058409;28;19943;-24
2022/05/21 02:19:01;;;;;;;;;;;;;;;;;;5058611;28;19974;-24
2022/05/21 02:21:28;;;;;;;;;;;;;;;;;;5040197;28;19909;-24
2022/05/21 02:23:55;;;;;;;;;;;;;;;;;;5057847;28;19924;-24
2022/05/21 02:26:37;;;;;;;;;;;;;;;;;;5040839;28;19940;-25
2022/05/21 02:29:04;;;;;;;;;;;;;;;;;;5057779;28;19912;-24
2022/05/21 02:31:32;;;;;;;;;;;;;;;;;;5056757;28;19999;-25
2022/05/21 02:33:59;;;;;;;;;;;;;;;;;;5057995;28;19955;-24
2022/05/21 02:39:25;;;;;;;;;;;;;;;;;;5058418;28;19936;-24
2022/05/21 02:41:52;;;;;;;;;;;;;;;;;;5039987;28;20015;-24
2022/05/21 02:44:19;;;;;;;;;;;;;;;;;;5039677;28;19917;-24
2022/05/21 02:46:46;;;;;;;;;;;;;;;;;;5057652;28;19923;-24
2022/05/21 02:49:14;;;;;;;;;;;;;;;;;;5057645;28;19923;-24
2022/05/21 02:51:40;;;;;;;;;;;;;;;;;;5040296;28;19912;-24
2022/05/21 02:56:52;;;;;;;;;;;;;;;;;;5056961;28;20368;-24
2022/05/21 02:59:18;;;;;;;;;;;;;;;;;;5039931;28;20335;-24
2022/05/21 03:01:46;;;;;;;;;;;;;;;;;;5057163;28;19908;-24
2022/05/21 03:04:17;;;;;;;;;;;;;;;;;;5057271;28;20235;-24
2022/05/21 03:06:44;;;;;;;;;;;;;;;;;;5039739;28;19908;-24
2022/05/21 03:11:56;;;;;;;;;;;;;;;;;;5057243;28;20012;-25
2022/05/21 03:14:23;;;;;;;;;;;;;;;;;;5040282;28;19913;-24
2022/05/21 03:16:56;;;;;;;;;;;;;;;;;;5057149;28;19969;-24
2022/05/21 03:19:23;;;;;;;;;;;;;;;;;;5039818;28;19924;-24
2022/05/21 03:21:49;;;;;;;;;;;;;;;;;;5056860;28;19924;-25
2022/05/21 03:24:16;;;;;;;;;;;;;;;;;;5038891;28;19983;-24
2022/05/21 03:26:43;;;;;;;;;;;;;;;;;;5039995;28;19947;-24
2022/05/21 03:29:10;;;;;;;;;;;;;;;;;;5039241;28;20335;-24
2022/05/21 03:31:36;;;;;;;;;;;;;;;;;;5039211;28;19921;-24
2022/05/21 03:34:03;;;;;;;;;;;;;;;;;;5038984;28;20403;-24
2022/05/21 03:36:30;;;;;;;;;;;;;;;;;;5039409;28;20011;-24
2022/05/21 03:38:57;;;;;;;;;;;;;;;;;;5057407;28;20314;-24
2022/05/21 03:41:24;;;;;;;;;;;;;;;;;;5039335;28;20011;-24
2022/05/21 03:43:52;;;;;;;;;;;;;;;;;;5038938;28;19916;-24
2022/05/21 03:46:19;;;;;;;;;;;;;;;;;;5057171;28;19909;-24
2022/05/21 03:48:45;;;;;;;;;;;;;;;;;;5039041;28;19924;-24
2022/05/21 03:51:12;;;;;;;;;;;;;;;;;;5060190;28;19976;-24
2022/05/21 03:53:39;;;;;;;;;;;;;;;;;;5060925;28;19962;-24
2022/05/21 03:56:19;;;;;;;;;;;;;;;;;;5043228;28;19913;-24
2022/05/21 03:58:46;;;;;;;;;;;;;;;;;;5061050;28;20288;-24
2022/05/21 04:01:14;;;;;;;;;;;;;;;;;;5061515;28;19978;-24
2022/05/21 04:03:42;;;;;;;;;;;;;;;;;;5060324;28;19923;-24
2022/05/21 04:09:00;;;;;;;;;;;;;;;;;;5060032;28;19920;-23
2022/05/21 04:11:28;;;;;;;;;;;;;;;;;;5060426;28;19939;-24
2022/05/21 04:13:55;;;;;;;;;;;;;;;;;;5042251;28;19923;-25
2022/05/21 04:16:22;;;;;;;;;;;;;;;;;;5059727;28;20012;-24
2022/05/21 04:18:48;;;;;;;;;;;;;;;;;;5040257;28;19932;-25
2022/05/21 04:21:14;;;;;;;;;;;;;;;;;;5057556;28;19912;-25
2022/05/21 04:23:40;;;;;;;;;;;;;;;;;;5057240;28;19932;-24
2022/05/21 04:43:08;;;;;;;;;;;;;;;;;;5506173;22;19932;-25
2022/05/21 04:45:34;;;;;;;;;;;;;;;;;;5058446;28;19920;-25
2022/05/21 04:48:00;;;;;;;;;;;;;;;;;;5056357;28;19921;-25
2022/05/21 04:50:26;;;;;;;;;;;;;;;;;;5056614;28;20038;-25
2022/05/21 04:53:02;;;;;;;;;;;;;;;;;;5041228;28;19912;-24
2022/05/21 04:55:47;;;;;;;;;;;;;;;;;;5059512;28;19909;-25
2022/05/21 04:58:21;;;;;;;;;;;;;;;;;;5042647;28;19912;-25
2022/05/21 05:01:00;;;;;;;;;;;;;;;;;;5053961;28;19913;-25
2022/05/21 05:03:28;;;;;;;;;;;;;;;;;;5061729;28;19931;-25
2022/05/21 05:06:00;;;;;;;;;;;;;;;;;;5064365;28;19923;-26
2022/05/21 05:08:30;;;;;;;;;;;;;;;;;;5058796;28;19912;-25
2022/05/21 05:13:44;;;;;;;;;;;;;;;;;;5060924;28;19966;-25
2022/05/21 05:16:11;;;;;;;;;;;;;;;;;;5058878;28;19971;-25
2022/05/21 05:18:38;;;;;;;;;;;;;;;;;;5059568;28;19942;-25
2022/05/21 05:23:57;;;;;;;;;;;;;;;;;;5058761;28;19932;-25
2022/05/21 05:26:25;;;;;;;;;;;;;;;;;;5058373;28;19965;-25
2022/05/21 05:31:46;;;;;;;;;;;;;;;;;;5059993;28;19924;-25
2022/05/21 05:36:58;;;;;;;;;;;;;;;;;;5059675;28;20370;-25
2022/05/21 05:39:35;;;;;;;;;;;;;;;;;;5058939;28;19939;-25
2022/05/21 05:42:04;;;;;;;;;;;;;;;;;;5060427;28;19962;-25
2022/05/21 05:47:31;;;;;;;;;;;;;;;;;;5060675;28;19923;-25
2022/05/21 05:50:14;;;;;;;;;;;;;;;;;;5034470;28;20054;-25
2022/05/21 05:52:41;;;;;;;;;;;;;;;;;;5470590;22;20020;-24
2022/05/21 05:55:08;;;;;;;;;;;;;;;;;;5057235;28;19916;-24
2022/05/21 05:57:35;;;;;;;;;;;;;;;;;;5056711;28;20201;-24
2022/05/21 06:00:01;;;;;;;;;;;;;;;;;;5055757;28;19995;-25
2022/05/21 06:05:12;;;;;;;;;;;;;;;;;;5054905;28;19966;-25
2022/05/21 06:07:38;;;;;;;;;;;;;;;;;;5054534;28;20355;-24
2022/05/21 06:10:04;;;;;;;;;;;;;;;;;;5054473;28;19916;-25
2022/05/21 06:12:31;;;;;;;;;;;;;;;;;;5054122;28;20058;-25
2022/05/21 06:14:57;;;;;;;;;;;;;;;;;;5036752;28;20259;-25
2022/05/21 06:17:23;;;;;;;;;;;;;;;;;;5054309;28;19913;-28
2022/05/21 06:19:49;;;;;;;;;;;;;;;;;;5054586;28;19920;-25
2022/05/21 06:22:16;;;;;;;;;;;;;;;;;;5056440;28;19913;-24
2022/05/21 06:24:44;;;;;;;;;;;;;;;;;;5039569;28;20335;-24
2022/05/21 06:27:10;;;;;;;;;;;;;;;;;;5055608;28;20228;-25
2022/05/21 06:29:36;;;;;;;;;;;;;;;;;;5055359;28;19923;-25
2022/05/21 06:32:02;;;;;;;;;;;;;;;;;;5054731;28;19913;-25
2022/05/21 06:34:29;;;;;;;;;;;;;;;;;;5054883;28;19992;-25
2022/05/21 06:36:55;;;;;;;;;;;;;;;;;;5054889;28;19916;-25
2022/05/21 06:39:21;;;;;;;;;;;;;;;;;;5054617;28;19920;-25
2022/05/21 06:41:47;;;;;;;;;;;;;;;;;;5054766;28;19909;-25
2022/05/21 06:44:13;;;;;;;;;;;;;;;;;;5054543;28;19916;-25
2022/05/21 06:46:39;;;;;;;;;;;;;;;;;;5054807;28;19909;-25
2022/05/21 06:49:05;;;;;;;;;;;;;;;;;;5054678;28;20331;-25
2022/05/21 06:51:31;;;;;;;;;;;;;;;;;;5054975;28;19928;-25
2022/05/21 06:53:57;;;;;;;;;;;;;;;;;;5054409;28;19989;-25
2022/05/21 06:56:23;;;;;;;;;;;;;;;;;;5058892;28;19967;-25
2022/05/21 06:58:50;;;;;;;;;;;;;;;;;;5054454;28;19912;-25
2022/05/21 07:01:16;;;;;;;;;;;;;;;;;;5036813;28;20346;-25
2022/05/21 07:09:21;;;;;;;;;;;;;;;;;;5057433;28;19924;-24
2022/05/21 07:11:51;;;;;;;;;;;;;;;;;;5056353;28;20224;-25
2022/05/21 07:14:17;;;;;;;;;;;;;;;;;;5054498;28;20306;-25
2022/05/21 07:19:35;;;;;;;;;;;;;;;;;;5056748;28;19923;-24
2022/05/21 07:22:02;;;;;;;;;;;;;;;;;;5054311;28;20228;-25
2022/05/21 07:24:28;;;;;;;;;;;;;;;;;;5054428;28;19978;-25
2022/05/21 07:26:54;;;;;;;;;;;;;;;;;;5058407;28;19916;-29
2022/05/21 07:29:20;;;;;;;;;;;;;;;;;;5040377;28;19913;-25
2022/05/21 07:31:46;;;;;;;;;;;;;;;;;;5057883;28;19920;-25
2022/05/21 07:34:12;;;;;;;;;;;;;;;;;;5057809;28;19909;-25
2022/05/21 07:36:38;;;;;;;;;;;;;;;;;;5057526;28;19916;-25
2022/05/21 07:39:04;;;;;;;;;;;;;;;;;;5057487;28;20453;-25
2022/05/21 07:41:30;;;;;;;;;;;;;;;;;;5057922;28;19912;-25
2022/05/21 07:43:57;;;;;;;;;;;;;;;;;;5058021;28;20357;-24
2022/05/21 07:46:29;;;;;;;;;;;;;;;;;;5060542;28;20250;-24
2022/05/21 07:48:56;;;;;;;;;;;;;;;;;;5060237;28;19912;-24
2022/05/21 07:51:22;;;;;;;;;;;;;;;;;;5059643;28;20334;-25
2022/05/21 07:53:48;;;;;;;;;;;;;;;;;;5057276;28;19925;-25
2022/05/21 07:56:14;;;;;;;;;;;;;;;;;;5057447;28;19913;-25
2022/05/21 07:58:42;;;;;;;;;;;;;;;;;;5059741;28;19917;-24
2022/05/21 08:01:10;;;;;;;;;;;;;;;;;;5059732;28;20350;-23
2022/05/21 08:03:37;;;;;;;;;;;;;;;;;;5060441;28;20026;-24
2022/05/21 08:06:04;;;;;;;;;;;;;;;;;;5058434;28;19909;-24
2022/05/21 08:08:31;;;;;;;;;;;;;;;;;;5059065;28;19975;-24
2022/05/21 08:10:57;;;;;;;;;;;;;;;;;;5042332;28;19912;-24
2022/05/21 08:13:25;;;;;;;;;;;;;;;;;;5060433;28;19940;-24
2022/05/21 08:15:52;;;;;;;;;;;;;;;;;;5060126;28;20343;-24
2022/05/21 08:18:18;;;;;;;;;;;;;;;;;;5040699;28;19924;-25
2022/05/21 08:20:47;;;;;;;;;;;;;;;;;;5057835;28;20331;-23
2022/05/21 08:28:46;;;;;;;;;;;;;;;;;;5056366;28;20388;-25
2022/05/21 08:31:12;;;;;;;;;;;;;;;;;;5038785;28;20342;-25
2022/05/21 08:33:38;;;;;;;;;;;;;;;;;;5056064;28;20236;-24
2022/05/21 08:36:04;;;;;;;;;;;;;;;;;;5055817;28;19960;-25
2022/05/21 08:38:30;;;;;;;;;;;;;;;;;;5056428;28;19913;-26
2022/05/21 08:40:56;;;;;;;;;;;;;;;;;;5039028;28;19917;-25
2022/05/21 08:43:22;;;;;;;;;;;;;;;;;;5055936;28;19924;-25
2022/05/21 08:45:49;;;;;;;;;;;;;;;;;;5056178;28;20003;-25
2022/05/21 08:48:15;;;;;;;;;;;;;;;;;;5056808;28;19924;-25
2022/05/21 08:50:41;;;;;;;;;;;;;;;;;;5056185;28;19952;-25
2022/05/21 08:53:08;;;;;;;;;;;;;;;;;;5055632;28;19967;-26
2022/05/21 08:55:34;;;;;;;;;;;;;;;;;;5055794;28;19974;-26
2022/05/21 08:58:00;;;;;;;;;;;;;;;;;;5055910;28;19951;-25
2022/05/21 09:00:26;;;;;;;;;;;;;;;;;;5037961;28;19928;-25
2022/05/21 09:02:54;;;;;;;;;;;;;;;;;;5055733;28;20150;-26
2022/05/21 09:05:20;;;;;;;;;;;;;;;;;;5055968;28;19913;-27
2022/05/21 09:07:46;;;;;;;;;;;;;;;;;;5056026;28;19919;-26
2022/05/21 09:10:14;;;;;;;;;;;;;;;;;;5057408;28;20077;-25
2022/05/21 09:12:48;;;;;;;;;;;;;;;;;;5056989;28;19963;-24
2022/05/21 09:16:54;;;;;;;;;;;;;;;;;;5038718;28;20012;-26
2022/05/21 09:18:15;;;;;;;;;;;;;;;;;;5057422;28;19964;-24
2022/05/21 09:20:45;;;;;;;;;;;;;;;;;;5059026;28;19923;-25
2022/05/21 09:26:03;;;;;;;;;;;;;;;;;;5056232;28;20035;-26
2022/05/21 09:28:38;;;;;;;;;;;;;;;;;;5058194;28;20042;-26
2022/05/21 09:31:12;;;;;;;;;;;;;;;;;;5056060;28;19913;-25
2022/05/21 09:33:42;;;;;;;;;;;;;;;;;;5039404;28;19908;-25
2022/05/21 09:36:08;;;;;;;;;;;;;;;;;;5039719;28;19912;-26
2022/05/21 09:38:36;;;;;;;;;;;;;;;;;;5056090;28;19935;-25
2022/05/21 09:41:02;;;;;;;;;;;;;;;;;;5055594;28;19912;-25
2022/05/21 09:46:13;;;;;;;;;;;;;;;;;;5055766;28;20038;-25
2022/05/21 09:48:42;;;;;;;;;;;;;;;;;;5057930;28;19916;-23
2022/05/21 09:51:09;;;;;;;;;;;;;;;;;;5040432;28;19909;-24
2022/05/21 09:56:27;;;;;;;;;;;;;;;;;;5058529;28;19923;-25
2022/05/21 09:58:54;;;;;;;;;;;;;;;;;;5057614;28;19940;-24
2022/05/21 10:01:21;;;;;;;;;;;;;;;;;;5040314;28;19912;-25
2022/05/21 10:03:49;;;;;;;;;;;;;;;;;;5057991;28;20017;-25
2022/05/21 10:06:17;;;;;;;;;;;;;;;;;;5058337;28;19955;-24
2022/05/21 10:11:29;;;;;;;;;;;;;;;;;;5057873;28;19978;-25
2022/05/21 10:13:58;;;;;;;;;;;;;;;;;;5058285;28;19919;-25
2022/05/21 10:17:05;;;;;;;;;;;;;;;;;;5058820;28;19913;-25
2022/05/21 10:22:26;;;;;;;;;;;;;;;;;;5056335;28;19921;-24
2022/05/21 10:24:54;;;;;;;;;;;;;;;;;;5058612;28;19917;-24
2022/05/21 10:27:23;;;;;;;;;;;;;;;;;;5057387;28;19934;-24
2022/05/21 10:30:01;;;;;;;;;;;;;;;;;;5057090;28;19913;-24
2022/05/21 10:32:37;;;;;;;;;;;;;;;;;;5056352;28;19909;-24
2022/05/21 10:35:11;;;;;;;;;;;;;;;;;;5056710;28;19924;-24
2022/05/21 10:37:41;;;;;;;;;;;;;;;;;;5055948;28;19917;-24
2022/05/21 10:40:09;;;;;;;;;;;;;;;;;;5037968;28;19920;-24
2022/05/21 10:48:21;;;;;;;;;;;;;;;;;;5056046;28;19936;-25
2022/05/21 10:50:54;;;;;;;;;;;;;;;;;;5038914;28;20255;-24
2022/05/21 11:01:55;;;;;;;;;;;;;;;;;;5056931;28;19992;-25
2022/05/21 11:04:37;;;;;;;;;;;;;;;;;;5055978;28;20197;-25
2022/05/21 11:07:06;;;;;;;;;;;;;;;;;;5056333;28;19920;-24
2022/05/21 11:09:45;;;;;;;;;;;;;;;;;;5055583;28;19996;-25
2022/05/21 11:12:22;;;;;;;;;;;;;;;;;;5054972;28;19916;-24
2022/05/21 11:15:09;;;;;;;;;;;;;;;;;;5055538;28;20201;-24
2022/05/21 11:17:37;;;;;;;;;;;;;;;;;;5056117;28;19981;-24
2022/05/21 11:20:05;;;;;;;;;;;;;;;;;;5056579;28;19920;-25
2022/05/21 11:25:27;;;;;;;;;;;;;;;;;;5055264;28;20267;-24
2022/05/21 11:27:57;;;;;;;;;;;;;;;;;;5038834;28;20003;-25
2022/05/21 11:30:49;;;;;;;;;;;;;;;;;;5054405;28;19912;-25
2022/05/21 11:38:54;;;;;;;;;;;;;;;;;;5056039;28;19935;-25
2022/05/21 11:47:02;;;;;;;;;;;;;;;;;;5055752;28;20020;-25
2022/05/21 11:49:29;;;;;;;;;;;;;;;;;;5038467;28;19919;-24
2022/05/21 11:51:59;;;;;;;;;;;;;;;;;;5054719;28;19913;-24
2022/05/21 11:54:32;;;;;;;;;;;;;;;;;;5054640;28;20351;-25
2022/05/21 12:02:53;;;;;;;;;;;;;;;;;;5056061;28;19924;-24
2022/05/21 12:13:52;;;;;;;;;;;;;;;;;;5336211;22;19929;-25
2022/05/21 12:16:20;;;;;;;;;;;;;;;;;;5041996;28;19920;-25
2022/05/21 12:18:51;;;;;;;;;;;;;;;;;;5041702;28;19912;-25
2022/05/21 12:21:26;;;;;;;;;;;;;;;;;;5058799;28;19985;-24
2022/05/21 12:24:00;;;;;;;;;;;;;;;;;;5039901;28;19912;-24
2022/05/21 12:26:30;;;;;;;;;;;;;;;;;;5060480;28;19925;-25
2022/05/21 12:28:56;;;;;;;;;;;;;;;;;;5060134;28;19988;-25
2022/05/21 12:31:23;;;;;;;;;;;;;;;;;;5059961;28;19919;-25
2022/05/21 12:33:51;;;;;;;;;;;;;;;;;;5042168;28;19913;-24
2022/05/21 12:36:18;;;;;;;;;;;;;;;;;;5042544;28;20318;-25
2022/05/21 12:38:46;;;;;;;;;;;;;;;;;;5042034;28;19913;-25
2022/05/21 12:41:13;;;;;;;;;;;;;;;;;;5059598;28;19916;-24
2022/05/21 12:43:39;;;;;;;;;;;;;;;;;;5041943;28;19932;-25
2022/05/21 12:46:06;;;;;;;;;;;;;;;;;;5059800;28;19913;-25
2022/05/21 12:48:33;;;;;;;;;;;;;;;;;;5060369;28;19919;-25
2022/05/21 12:51:00;;;;;;;;;;;;;;;;;;5060027;28;19924;-24
2022/05/21 12:53:27;;;;;;;;;;;;;;;;;;5042082;28;19909;-24
2022/05/21 12:55:53;;;;;;;;;;;;;;;;;;5059404;28;19913;-24
2022/05/21 12:58:22;;;;;;;;;;;;;;;;;;5059626;28;20098;-24
2022/05/21 13:00:49;;;;;;;;;;;;;;;;;;5060168;28;19913;-24
2022/05/21 13:03:16;;;;;;;;;;;;;;;;;;5042681;28;19916;-24
2022/05/21 13:05:42;;;;;;;;;;;;;;;;;;5059175;28;19920;-24
2022/05/21 13:08:09;;;;;;;;;;;;;;;;;;5059453;28;19909;-24
2022/05/21 13:10:36;;;;;;;;;;;;;;;;;;5041433;28;19912;-25
2022/05/21 13:13:04;;;;;;;;;;;;;;;;;;5037788;28;19928;-25
2022/05/21 13:15:31;;;;;;;;;;;;;;;;;;5039378;28;19917;-24
2022/05/21 13:17:58;;;;;;;;;;;;;;;;;;5038161;28;19910;-24
2022/05/21 13:20:25;;;;;;;;;;;;;;;;;;5038406;28;19920;-24
2022/05/21 13:22:52;;;;;;;;;;;;;;;;;;5038056;28;19944;-24
2022/05/21 13:25:22;;;;;;;;;;;;;;;;;;5039471;28;19939;-24
2022/05/21 13:27:50;;;;;;;;;;;;;;;;;;5039096;28;19909;-24
2022/05/21 13:30:16;;;;;;;;;;;;;;;;;;5038119;28;19953;-24
2022/05/21 13:32:45;;;;;;;;;;;;;;;;;;5039689;28;19932;-24
2022/05/21 13:35:12;;;;;;;;;;;;;;;;;;5037937;28;20294;-24
2022/05/21 13:37:41;;;;;;;;;;;;;;;;;;5038720;28;19913;-25
2022/05/21 13:40:08;;;;;;;;;;;;;;;;;;5037823;28;20347;-25
2022/05/21 13:42:35;;;;;;;;;;;;;;;;;;5037476;28;19967;-24
2022/05/21 13:45:01;;;;;;;;;;;;;;;;;;5037790;28;19944;-25
2022/05/21 13:47:28;;;;;;;;;;;;;;;;;;5038354;28;19909;-24
2022/05/21 13:49:55;;;;;;;;;;;;;;;;;;5038407;28;20359;-25
2022/05/21 13:52:22;;;;;;;;;;;;;;;;;;5038806;28;19913;-25
2022/05/21 13:54:48;;;;;;;;;;;;;;;;;;5037512;28;20326;-25
2022/05/21 13:57:16;;;;;;;;;;;;;;;;;;5037405;28;19944;-25
2022/05/21 13:59:43;;;;;;;;;;;;;;;;;;5037578;28;19991;-24
2022/05/21 14:02:10;;;;;;;;;;;;;;;;;;5038493;28;20389;-24
2022/05/21 14:04:39;;;;;;;;;;;;;;;;;;5038543;28;19976;-24
2022/05/21 14:07:06;;;;;;;;;;;;;;;;;;5038611;28;20075;-25
2022/05/21 14:09:33;;;;;;;;;;;;;;;;;;5038465;28;19913;-24
2022/05/21 14:12:00;;;;;;;;;;;;;;;;;;5038793;28;19920;-25
2022/05/21 14:14:27;;;;;;;;;;;;;;;;;;5053481;28;20359;-25
2022/05/21 14:16:54;;;;;;;;;;;;;;;;;;5040369;28;20321;-24
2022/05/21 14:22:13;;;;;;;;;;;;;;;;;;5058478;28;19963;-24
2022/05/21 14:24:40;;;;;;;;;;;;;;;;;;5058180;28;19923;-24
2022/05/21 14:27:06;;;;;;;;;;;;;;;;;;5058184;28;19968;-24
2022/05/21 14:29:33;;;;;;;;;;;;;;;;;;5058015;28;19970;-24
2022/05/21 14:32:00;;;;;;;;;;;;;;;;;;5057547;28;19938;-24
2022/05/21 14:34:27;;;;;;;;;;;;;;;;;;5057628;28;20022;-25
2022/05/21 14:36:54;;;;;;;;;;;;;;;;;;5057688;28;19913;-24
2022/05/21 14:39:21;;;;;;;;;;;;;;;;;;5040206;28;19987;-25
2022/05/21 14:41:49;;;;;;;;;;;;;;;;;;5039868;28;19996;-24
2022/05/21 14:44:16;;;;;;;;;;;;;;;;;;5057593;28;20000;-24
2022/05/21 14:49:27;;;;;;;;;;;;;;;;;;5057727;28;19923;-25
2022/05/21 14:54:39;;;;;;;;;;;;;;;;;;5057574;28;19923;-24
2022/05/21 14:57:06;;;;;;;;;;;;;;;;;;5039674;28;19927;-24
2022/05/21 14:59:33;;;;;;;;;;;;;;;;;;5039642;28;19909;-24
2022/05/21 15:01:59;;;;;;;;;;;;;;;;;;5057267;28;19970;-25
2022/05/21 15:04:26;;;;;;;;;;;;;;;;;;5039662;28;19913;-24
2022/05/21 15:06:53;;;;;;;;;;;;;;;;;;5057250;28;19913;-25
2022/05/21 15:09:19;;;;;;;;;;;;;;;;;;5057266;28;19940;-24
2022/05/21 15:11:50;;;;;;;;;;;;;;;;;;5039445;28;19944;-24
2022/05/21 15:14:17;;;;;;;;;;;;;;;;;;5035714;28;19921;-25
2022/05/21 15:16:44;;;;;;;;;;;;;;;;;;5037312;28;19909;-25
2022/05/21 15:19:11;;;;;;;;;;;;;;;;;;5036011;28;19917;-24
2022/05/21 15:21:39;;;;;;;;;;;;;;;;;;5036943;28;20248;-25
2022/05/21 15:24:06;;;;;;;;;;;;;;;;;;5035612;28;19913;-24
2022/05/21 15:26:33;;;;;;;;;;;;;;;;;;5035742;28;19913;-25
2022/05/21 15:28:59;;;;;;;;;;;;;;;;;;5036875;28;19913;-25
2022/05/21 15:31:27;;;;;;;;;;;;;;;;;;5037305;28;19971;-25
2022/05/21 15:33:54;;;;;;;;;;;;;;;;;;5036770;28;19913;-24
2022/05/21 15:36:22;;;;;;;;;;;;;;;;;;5037454;28;19913;-25
2022/05/21 15:38:49;;;;;;;;;;;;;;;;;;5036653;28;20340;-24
2022/05/21 15:41:16;;;;;;;;;;;;;;;;;;5035979;28;19951;-25
2022/05/21 15:43:42;;;;;;;;;;;;;;;;;;5036375;28;19918;-25
2022/05/21 15:46:09;;;;;;;;;;;;;;;;;;5038424;28;20064;-25
2022/05/21 15:48:36;;;;;;;;;;;;;;;;;;5040893;28;19913;-25
2022/05/21 15:51:04;;;;;;;;;;;;;;;;;;5040127;28;20310;-24
2022/05/21 15:53:30;;;;;;;;;;;;;;;;;;5040044;28;20003;-25
2022/05/21 15:55:58;;;;;;;;;;;;;;;;;;5040780;28;19923;-24
2022/05/21 15:58:25;;;;;;;;;;;;;;;;;;5039791;28;19909;-25
2022/05/21 16:00:51;;;;;;;;;;;;;;;;;;5041372;28;19913;-24
2022/05/21 16:03:18;;;;;;;;;;;;;;;;;;5040659;28;19975;-24
2022/05/21 16:05:45;;;;;;;;;;;;;;;;;;5041128;28;19913;-24
2022/05/21 16:08:12;;;;;;;;;;;;;;;;;;5040717;28;19920;-25
2022/05/21 16:10:43;;;;;;;;;;;;;;;;;;5040708;28;19963;-24
2022/05/21 16:13:10;;;;;;;;;;;;;;;;;;5042023;28;19959;-24
2022/05/21 16:15:40;;;;;;;;;;;;;;;;;;5060921;28;19916;-25
2022/05/21 16:18:07;;;;;;;;;;;;;;;;;;5060538;28;19909;-25
2022/05/21 16:20:34;;;;;;;;;;;;;;;;;;5060362;28;19919;-25
2022/05/21 16:23:01;;;;;;;;;;;;;;;;;;5060125;28;19913;-25
2022/05/21 16:25:28;;;;;;;;;;;;;;;;;;5060442;28;20390;-24
2022/05/21 16:27:57;;;;;;;;;;;;;;;;;;5042868;28;19909;-25
2022/05/21 16:30:23;;;;;;;;;;;;;;;;;;5060163;28;20305;-25
2022/05/21 16:32:50;;;;;;;;;;;;;;;;;;5060554;28;20011;-24
2022/05/21 16:35:17;;;;;;;;;;;;;;;;;;5060170;28;19924;-24
2022/05/21 16:37:44;;;;;;;;;;;;;;;;;;5059802;28;19909;-25
2022/05/21 16:40:14;;;;;;;;;;;;;;;;;;5060693;28;19927;-24
2022/05/21 16:42:41;;;;;;;;;;;;;;;;;;5042570;28;19913;-24
2022/05/21 16:45:07;;;;;;;;;;;;;;;;;;5060411;28;20244;-24
2022/05/21 16:47:43;;;;;;;;;;;;;;;;;;5042072;28;20011;-25
2022/05/21 16:50:12;;;;;;;;;;;;;;;;;;5042630;28;19974;-24
2022/05/21 16:52:39;;;;;;;;;;;;;;;;;;5042218;28;19912;-25
2022/05/21 16:55:06;;;;;;;;;;;;;;;;;;5059731;28;20309;-25
2022/05/21 16:57:33;;;;;;;;;;;;;;;;;;5060076;28;19954;-24
2022/05/21 17:00:00;;;;;;;;;;;;;;;;;;5060194;28;19912;-24
2022/05/21 17:02:27;;;;;;;;;;;;;;;;;;5041723;28;19909;-25
2022/05/21 17:04:54;;;;;;;;;;;;;;;;;;5059453;28;20104;-25
2022/05/21 17:07:22;;;;;;;;;;;;;;;;;;5059601;28;19923;-24
2022/05/21 17:09:49;;;;;;;;;;;;;;;;;;5059929;28;20315;-25
2022/05/21 17:12:16;;;;;;;;;;;;;;;;;;5059392;28;19912;-24
2022/05/21 17:14:43;;;;;;;;;;;;;;;;;;5058906;28;19982;-25
2022/05/21 17:17:10;;;;;;;;;;;;;;;;;;5059825;28;19966;-25
2022/05/21 17:19:38;;;;;;;;;;;;;;;;;;5041756;28;20243;-27
2022/05/21 17:22:05;;;;;;;;;;;;;;;;;;5058884;28;19908;-28
2022/05/21 17:24:32;;;;;;;;;;;;;;;;;;5041076;28;19999;-27
2022/05/21 17:26:59;;;;;;;;;;;;;;;;;;5059595;28;19916;-30
2022/05/21 17:32:10;;;;;;;;;;;;;;;;;;5058980;28;20286;-34
2022/05/21 17:34:38;;;;;;;;;;;;;;;;;;5041878;28;20000;-27
2022/05/21 17:37:05;;;;;;;;;;;;;;;;;;5040944;28;19909;-30
2022/05/21 17:39:31;;;;;;;;;;;;;;;;;;5058744;28;20066;-25
2022/05/21 17:41:59;;;;;;;;;;;;;;;;;;5041209;28;19908;-30
2022/05/21 17:44:32;;;;;;;;;;;;;;;;;;5058472;28;19927;-26
2022/05/21 17:46:59;;;;;;;;;;;;;;;;;;5058646;28;19909;-30
2022/05/21 17:49:26;;;;;;;;;;;;;;;;;;5058236;28;19913;-31
2022/05/21 17:51:53;;;;;;;;;;;;;;;;;;5058770;28;20180;-27
2022/05/21 17:54:20;;;;;;;;;;;;;;;;;;5040707;28;19913;-30
2022/05/21 17:56:46;;;;;;;;;;;;;;;;;;5059100;28;20204;-27
2022/05/21 17:59:13;;;;;;;;;;;;;;;;;;5058100;28;19912;-33
2022/05/21 18:01:40;;;;;;;;;;;;;;;;;;5058693;28;19909;-28
2022/05/21 18:04:07;;;;;;;;;;;;;;;;;;5058474;28;19972;-26
2022/05/21 18:06:34;;;;;;;;;;;;;;;;;;5040698;28;19909;-28
2022/05/21 18:09:01;;;;;;;;;;;;;;;;;;5057818;28;19916;-33
2022/05/21 18:11:29;;;;;;;;;;;;;;;;;;5058297;28;19913;-29
2022/05/21 18:13:56;;;;;;;;;;;;;;;;;;5057836;28;19924;-25
2022/05/21 18:19:20;;;;;;;;;;;;;;;;;;5058279;28;19923;-30
2022/05/21 18:21:47;;;;;;;;;;;;;;;;;;5058181;28;19952;-31
2022/05/21 18:24:14;;;;;;;;;;;;;;;;;;5057533;28;19912;-28
2022/05/21 18:26:41;;;;;;;;;;;;;;;;;;5058036;28;20302;-28
2022/05/21 18:29:08;;;;;;;;;;;;;;;;;;5057558;28;19951;-32
2022/05/21 18:31:35;;;;;;;;;;;;;;;;;;5040104;28;19923;-31
2022/05/21 18:34:02;;;;;;;;;;;;;;;;;;5057554;28;19913;-28
2022/05/21 18:36:29;;;;;;;;;;;;;;;;;;5057872;28;19913;-27
2022/05/21 18:38:55;;;;;;;;;;;;;;;;;;5057608;28;20069;-28
2022/05/21 18:41:24;;;;;;;;;;;;;;;;;;5057353;28;19920;-24
2022/05/21 18:43:51;;;;;;;;;;;;;;;;;;5057073;28;19927;-26
2022/05/21 18:46:18;;;;;;;;;;;;;;;;;;5058048;28;19939;-26
2022/05/21 18:48:45;;;;;;;;;;;;;;;;;;5057879;28;19920;-28
2022/05/21 18:51:26;;;;;;;;;;;;;;;;;;5057806;28;19948;-31
2022/05/21 18:53:53;;;;;;;;;;;;;;;;;;5040282;28;19932;-26
2022/05/21 18:56:19;;;;;;;;;;;;;;;;;;5057581;28;20003;-29
2022/05/21 18:58:48;;;;;;;;;;;;;;;;;;5057843;28;19919;-28
2022/05/21 19:01:15;;;;;;;;;;;;;;;;;;5057570;28;19916;-31
2022/05/21 19:03:42;;;;;;;;;;;;;;;;;;5057850;28;19944;-30
2022/05/21 19:09:00;;;;;;;;;;;;;;;;;;5057676;28;19923;-28
2022/05/21 19:11:27;;;;;;;;;;;;;;;;;;5057613;28;20013;-25